createdAt,value
2023-01-15T00:02:50.186Z,15.25
2023-01-15T00:07:52.297Z,13.43
2023-01-15T00:12:53.927Z,13.35
2023-01-15T00:17:55.615Z,12.48
2023-01-15T00:22:57.348Z,12.70
2023-01-15T00:28:01.560Z,14.00
2023-01-15T00:33:03.346Z,12.73
2023-01-15T00:38:04.998Z,12.70
2023-01-15T00:43:06.753Z,10.43
2023-01-15T00:48:09.193Z,12.15
2023-01-15T00:53:10.818Z,10.95
2023-01-15T00:58:12.440Z,10.60
2023-01-15T01:03:14.113Z,14.50
2023-01-15T01:08:16.640Z,9.98
2023-01-15T01:13:18.287Z,11.20
2023-01-15T01:18:20.036Z,12.20
2023-01-15T01:23:24.445Z,12.43
2023-01-15T01:28:26.105Z,13.80
2023-01-15T01:33:27.932Z,14.55
2023-01-15T01:38:29.601Z,13.93
2023-01-15T01:43:31.769Z,12.20
2023-01-15T01:48:34.535Z,12.30
2023-01-15T01:53:36.200Z,11.27
2023-01-15T01:58:38.932Z,17.20
2023-01-15T02:03:40.694Z,12.27
2023-01-15T02:08:43.053Z,15.13
2023-01-15T02:13:57.405Z,12.18
2023-01-15T02:19:36.133Z,12.48
2023-01-15T02:24:49.844Z,10.27
2023-01-15T02:30:04.547Z,9.55
2023-01-15T02:35:13.088Z,10.40
2023-01-15T02:40:16.207Z,11.25
2023-01-15T02:45:24.460Z,10.07
2023-01-15T02:50:32.011Z,9.93
2023-01-15T02:55:43.843Z,10.70
2023-01-15T03:00:49.815Z,14.68
2023-01-15T03:06:00.499Z,12.93
2023-01-15T03:11:10.004Z,9.25
2023-01-15T03:16:38.508Z,9.00
2023-01-15T03:21:59.957Z,7.55
2023-01-15T03:27:02.088Z,8.10
2023-01-15T03:32:04.989Z,8.18
2023-01-15T03:37:06.856Z,10.82
2023-01-15T03:42:20.323Z,9.50
2023-01-15T03:47:42.547Z,10.68
2023-01-15T03:53:02.834Z,8.35
2023-01-15T03:58:16.248Z,9.93
2023-01-15T04:03:20.641Z,9.27
2023-01-15T04:08:23.411Z,8.70
2023-01-15T04:13:25.668Z,10.38
2023-01-15T04:18:27.833Z,11.32
2023-01-15T04:23:29.494Z,11.15
2023-01-15T04:28:31.201Z,12.73
2023-01-15T04:33:32.916Z,12.45
2023-01-15T04:38:34.997Z,13.15
2023-01-15T04:43:55.300Z,9.43
2023-01-15T04:48:56.970Z,10.80
2023-01-15T04:53:59.416Z,12.27
2023-01-15T04:59:02.765Z,14.63
2023-01-15T05:04:05.051Z,12.35
2023-01-15T05:09:07.237Z,11.23
2023-01-15T05:14:09.406Z,9.57
2023-01-15T05:19:11.165Z,10.32
2023-01-15T05:24:17.720Z,8.55
2023-01-15T05:29:19.430Z,7.85
2023-01-15T05:34:21.156Z,9.35
2023-01-15T05:39:22.825Z,9.35
2023-01-15T05:44:27.154Z,10.80
2023-01-15T05:49:32.855Z,9.95
2023-01-15T05:54:35.919Z,11.80
2023-01-15T05:59:43.436Z,11.63
2023-01-15T06:04:50.075Z,8.32
2023-01-15T06:09:52.240Z,13.40
2023-01-15T06:14:53.925Z,8.90
2023-01-15T06:19:55.622Z,7.35
2023-01-15T06:24:57.293Z,10.10
2023-01-15T06:29:59.146Z,11.40
2023-01-15T06:35:00.779Z,12.75
2023-01-15T06:40:02.478Z,12.75
2023-01-15T06:45:26.047Z,13.13
2023-01-15T06:50:28.337Z,15.07
2023-01-15T06:55:30.078Z,12.68
2023-01-15T07:00:31.919Z,10.90
2023-01-15T07:05:33.676Z,15.18
2023-01-15T07:10:36.304Z,16.67
2023-01-15T07:15:39.819Z,14.20
2023-01-15T07:20:42.133Z,12.65
2023-01-15T07:25:43.804Z,10.80
2023-01-15T07:30:45.986Z,14.88
2023-01-15T07:35:47.744Z,12.35
2023-01-15T07:41:09.763Z,9.88
2023-01-15T07:46:30.326Z,14.98
2023-01-15T07:51:31.992Z,10.63
2023-01-15T07:56:33.724Z,13.27
2023-01-15T08:01:35.454Z,12.75
2023-01-15T08:06:37.650Z,14.65
2023-01-15T08:11:58.178Z,11.27
2023-01-15T08:16:59.880Z,10.98
2023-01-15T08:22:01.953Z,11.30
2023-01-15T08:27:04.187Z,10.88
2023-01-15T08:32:06.106Z,10.70
2023-01-15T08:37:07.930Z,12.55
2023-01-15T08:42:09.765Z,11.93
2023-01-15T08:47:11.441Z,10.70
2023-01-15T08:52:13.289Z,10.40
2023-01-15T08:57:14.948Z,7.22
2023-01-15T09:02:17.807Z,9.52
2023-01-15T09:07:19.615Z,18.65
2023-01-15T09:12:24.901Z,12.60
2023-01-15T09:17:26.669Z,13.82
2023-01-15T09:22:31.238Z,17.75
2023-01-15T09:27:34.465Z,12.77
2023-01-15T09:32:36.113Z,15.10
2023-01-15T09:37:37.856Z,13.65
2023-01-15T09:42:46.216Z,13.68
2023-01-15T09:48:32.305Z,15.18
2023-01-15T09:53:46.221Z,14.32
2023-01-15T09:58:48.067Z,11.55
2023-01-15T10:04:31.362Z,7.70
2023-01-15T10:09:37.781Z,8.27
2023-01-15T10:15:02.405Z,11.65
2023-01-15T10:20:04.380Z,9.52
2023-01-15T10:25:14.985Z,7.35
2023-01-15T10:30:22.710Z,8.23
2023-01-15T10:35:27.166Z,10.13
2023-01-15T10:40:58.100Z,9.27
2023-01-15T10:46:11.889Z,10.98
2023-01-15T10:51:28.902Z,6.78
2023-01-15T10:56:49.091Z,7.53
2023-01-15T11:01:54.275Z,7.55
2023-01-15T11:06:56.128Z,6.35
2023-01-15T11:12:20.528Z,6.10
2023-01-15T11:17:43.292Z,5.97
2023-01-15T11:22:45.343Z,8.55
2023-01-15T11:27:49.896Z,7.57
2023-01-15T11:32:57.009Z,6.68
2023-01-15T11:38:13.629Z,7.32
2023-01-15T11:49:06.476Z,9.25
2023-01-15T11:54:12.500Z,8.35
2023-01-15T11:59:19.921Z,6.57
2023-01-15T12:04:34.783Z,5.75
2023-01-15T12:09:45.451Z,6.10
2023-01-15T12:15:06.944Z,7.50
2023-01-15T12:20:37.975Z,8.95
2023-01-15T12:26:17.836Z,7.18
2023-01-15T12:32:07.401Z,11.65
2023-01-15T12:37:21.229Z,9.27
2023-01-15T12:42:44.076Z,7.78
2023-01-15T12:48:07.069Z,8.88
2023-01-15T12:53:11.822Z,6.18
2023-01-15T12:58:36.520Z,8.57
2023-01-15T13:03:51.580Z,10.98
2023-01-15T13:09:03.423Z,7.88
2023-01-15T13:14:16.693Z,12.30
2023-01-15T13:19:27.554Z,8.68
2023-01-15T13:24:56.470Z,12.52
2023-01-15T13:30:19.813Z,7.38
2023-01-15T13:35:36.242Z,8.18
2023-01-15T13:40:50.717Z,10.13
2023-01-15T13:45:52.662Z,9.73
2023-01-15T13:50:58.993Z,8.60
2023-01-15T13:56:06.212Z,9.82
2023-01-15T14:01:23.135Z,9.88
2023-01-15T14:06:45.801Z,8.85
2023-01-15T14:12:08.135Z,9.90
2023-01-15T14:17:31.676Z,14.70
2023-01-15T14:22:55.531Z,11.75
2023-01-15T14:28:02.578Z,12.88
2023-01-15T14:33:19.491Z,17.05
2023-01-15T14:38:27.093Z,14.77
2023-01-15T14:43:33.531Z,10.95
2023-01-15T14:48:39.428Z,9.35
2023-01-15T14:53:48.903Z,12.40
2023-01-15T14:59:08.610Z,10.80
2023-01-15T15:04:40.827Z,12.25
2023-01-15T15:09:46.712Z,16.83
2023-01-15T15:15:27.241Z,17.73
2023-01-15T15:20:33.378Z,12.82
2023-01-15T15:25:39.588Z,13.35
2023-01-15T15:30:45.590Z,9.45
2023-01-15T15:35:52.492Z,11.00
2023-01-15T15:40:59.240Z,12.00
2023-01-15T15:51:49.127Z,8.93
2023-01-15T15:56:58.126Z,9.57
2023-01-15T16:02:36.486Z,12.15
2023-01-15T16:07:38.583Z,10.48
2023-01-15T16:13:09.981Z,10.20
2023-01-15T16:18:41.250Z,13.15
2023-01-15T16:23:46.603Z,8.60
2023-01-15T16:28:56.100Z,13.25
2023-01-15T16:33:59.897Z,13.38
2023-01-15T16:39:03.276Z,9.45
2023-01-15T16:44:07.794Z,10.02
2023-01-15T16:49:22.514Z,30.67
2023-01-15T16:54:31.169Z,30.75
2023-01-15T16:59:34.461Z,18.30
2023-01-15T17:04:41.476Z,23.33
2023-01-15T17:10:01.548Z,28.05
2023-01-15T17:15:15.997Z,25.50
2023-01-15T17:20:20.565Z,20.55
2023-01-15T17:25:24.340Z,20.63
2023-01-15T17:30:35.177Z,17.45
2023-01-15T17:35:41.653Z,15.38
2023-01-15T17:40:44.632Z,11.93
2023-01-15T17:45:47.627Z,13.48
2023-01-15T17:50:51.471Z,13.70
2023-01-15T17:56:12.172Z,10.70
2023-01-15T18:01:40.113Z,9.55
2023-01-15T18:06:48.790Z,9.68
2023-01-15T18:11:54.049Z,9.30
2023-01-15T18:16:56.652Z,9.93
2023-01-15T18:22:01.178Z,11.60
2023-01-15T18:27:04.458Z,11.35
2023-01-15T18:32:10.052Z,11.45
2023-01-15T18:37:13.778Z,11.10
2023-01-15T18:42:16.402Z,13.60
2023-01-15T18:47:18.928Z,16.85
2023-01-15T18:52:40.497Z,15.85
2023-01-15T18:57:43.826Z,18.35
2023-01-15T19:02:47.594Z,22.52
2023-01-15T19:07:50.395Z,26.40
2023-01-15T19:12:52.548Z,26.88
2023-01-15T19:18:13.747Z,25.67
2023-01-15T19:23:17.286Z,23.15
2023-01-15T19:28:21.881Z,22.58
2023-01-15T19:33:24.978Z,19.98
2023-01-15T19:38:29.604Z,16.48
2023-01-15T19:43:50.525Z,14.10
2023-01-15T19:49:11.379Z,14.20
2023-01-15T19:54:13.912Z,11.73
2023-01-15T19:59:16.594Z,12.57
2023-01-15T20:04:19.231Z,10.23
2023-01-15T20:09:22.057Z,10.52
2023-01-15T20:14:24.660Z,11.50
2023-01-15T20:19:27.308Z,19.83
2023-01-15T20:24:30.033Z,18.92
2023-01-15T20:29:32.697Z,18.85
2023-01-15T20:34:41.939Z,19.88
2023-01-15T20:39:44.770Z,12.77
2023-01-15T20:44:56.695Z,12.23
2023-01-15T20:49:59.081Z,16.25
2023-01-15T20:55:02.373Z,21.80
2023-01-15T21:00:06.175Z,25.15
2023-01-15T21:05:08.685Z,24.67
2023-01-15T21:10:14.317Z,20.30
2023-01-15T21:15:16.654Z,15.65
2023-01-15T21:20:18.414Z,14.35
2023-01-15T21:25:20.459Z,18.30
2023-01-15T21:30:26.046Z,15.50
2023-01-15T21:35:27.987Z,14.15
2023-01-15T21:40:29.675Z,16.15
2023-01-15T21:45:31.987Z,17.95
2023-01-15T21:50:33.862Z,18.50
2023-01-15T21:55:35.534Z,15.57
2023-01-15T22:00:37.884Z,14.65
2023-01-15T22:05:39.581Z,17.30
2023-01-15T22:10:41.208Z,13.23
2023-01-15T22:15:42.801Z,12.25
2023-01-15T22:20:45.428Z,9.07
2023-01-15T22:25:47.225Z,13.55
2023-01-15T22:30:48.974Z,10.52
2023-01-15T22:35:58.750Z,11.32
2023-01-15T22:41:00.392Z,11.57
2023-01-15T22:46:13.171Z,6.30
2023-01-15T22:51:14.883Z,6.70
2023-01-15T22:56:16.543Z,5.18
2023-01-15T23:01:18.631Z,5.47
2023-01-15T23:06:22.905Z,5.07
2023-01-15T23:11:25.070Z,4.20
2023-01-15T23:16:26.717Z,5.15
2023-01-15T23:21:28.631Z,4.40
2023-01-15T23:26:32.265Z,3.35
2023-01-15T23:31:34.180Z,2.47
2023-01-15T23:36:35.836Z,3.30
2023-01-15T23:41:56.181Z,3.28
2023-01-15T23:46:57.832Z,3.17
2023-01-15T23:52:00.164Z,3.03
2023-01-15T23:57:01.934Z,2.47
